createdAt,value
2022-11-25T00:00:08.758Z,7.90
2022-11-25T00:03:52.184Z,7.90
2022-11-25T00:07:36.113Z,7.90
2022-11-25T00:11:18.640Z,7.90
2022-11-25T00:15:00.299Z,7.90
2022-11-25T00:18:46.307Z,7.90
2022-11-25T00:22:28.049Z,7.90
2022-11-25T00:26:15.668Z,8.00
2022-11-25T00:29:57.455Z,8.00
2022-11-25T00:33:40.116Z,8.00
2022-11-25T00:37:21.845Z,7.90
2022-11-25T00:41:22.262Z,7.90
2022-11-25T00:45:04.367Z,7.80
2022-11-25T00:48:46.027Z,7.90
2022-11-25T00:52:27.821Z,7.80
2022-11-25T00:56:15.527Z,7.80
2022-11-25T00:59:57.508Z,7.80
2022-11-25T01:03:39.351Z,7.80
2022-11-25T01:07:21.123Z,7.80
2022-11-25T01:11:09.131Z,7.80
2022-11-25T01:14:50.826Z,7.80
2022-11-25T01:18:33.512Z,7.80
2022-11-25T01:22:15.219Z,7.80
2022-11-25T01:25:57.127Z,7.90
2022-11-25T01:29:41.493Z,7.90
2022-11-25T01:33:23.543Z,7.90
2022-11-25T01:37:05.646Z,7.90
2022-11-25T01:40:47.334Z,7.80
2022-11-25T01:44:30.867Z,7.70
2022-11-25T01:48:18.643Z,7.80
2022-11-25T01:52:05.892Z,7.70
2022-11-25T01:56:01.857Z,7.80
2022-11-25T01:59:49.662Z,7.70
2022-11-25T02:03:38.137Z,7.80
2022-11-25T02:07:29.746Z,7.80
2022-11-25T02:11:12.027Z,7.80
2022-11-25T02:14:55.624Z,7.70
2022-11-25T02:18:37.472Z,7.80
2022-11-25T02:22:49.116Z,7.80
2022-11-25T02:26:31.602Z,7.70
2022-11-25T02:30:13.867Z,7.70
2022-11-25T02:33:55.832Z,7.70
2022-11-25T02:37:37.605Z,7.70
2022-11-25T02:41:30.354Z,7.70
2022-11-25T02:45:17.248Z,7.70
2022-11-25T02:49:09.315Z,7.70
2022-11-25T02:52:51.231Z,7.60
2022-11-25T02:56:35.168Z,7.70
2022-11-25T03:00:17.820Z,7.70
2022-11-25T03:03:59.908Z,7.70
2022-11-25T03:07:41.640Z,7.70
2022-11-25T03:11:46.642Z,7.80
2022-11-25T03:15:28.523Z,7.90
2022-11-25T03:19:10.297Z,7.80
2022-11-25T03:22:52.111Z,7.80
2022-11-25T03:26:34.017Z,7.80
2022-11-25T03:30:24.349Z,7.80
2022-11-25T03:34:06.031Z,7.80
2022-11-25T03:37:47.927Z,7.90
2022-11-25T03:41:29.921Z,7.80
2022-11-25T03:45:15.471Z,7.70
2022-11-25T03:48:57.219Z,7.70
2022-11-25T03:52:38.953Z,7.80
2022-11-25T03:56:20.677Z,7.80
2022-11-25T04:00:03.020Z,7.90
2022-11-25T04:03:44.789Z,7.90
2022-11-25T04:07:26.641Z,7.90
2022-11-25T04:11:08.417Z,7.90
2022-11-25T04:14:50.344Z,7.90
2022-11-25T04:18:32.413Z,7.90
2022-11-25T04:22:14.106Z,7.90
2022-11-25T04:25:55.931Z,7.80
2022-11-25T04:29:37.623Z,7.80
2022-11-25T04:33:19.300Z,7.70
2022-11-25T04:37:01.028Z,7.60
2022-11-25T04:40:43.110Z,7.60
2022-11-25T04:44:24.786Z,7.50
2022-11-25T04:48:06.556Z,7.50
2022-11-25T04:51:48.254Z,7.50
2022-11-25T04:55:30.288Z,7.50
2022-11-25T04:59:30.388Z,7.60
2022-11-25T05:03:12.254Z,7.70
2022-11-25T05:06:54.179Z,7.70
2022-11-25T05:10:36.481Z,7.70
2022-11-25T05:14:18.240Z,7.80
2022-11-25T05:17:59.948Z,7.80
2022-11-25T05:21:41.752Z,7.70
2022-11-25T05:25:24.626Z,7.70
2022-11-25T05:29:06.330Z,7.70
2022-11-25T05:32:48.104Z,7.70
2022-11-25T05:36:29.949Z,7.70
2022-11-25T05:40:11.964Z,7.70
2022-11-25T05:43:53.757Z,7.70
2022-11-25T05:47:35.439Z,7.80
2022-11-25T05:51:17.107Z,7.90
2022-11-25T05:54:58.780Z,7.70
2022-11-25T05:58:40.449Z,7.70
2022-11-25T06:02:22.407Z,7.70
2022-11-25T06:06:05.045Z,7.60
2022-11-25T06:09:46.954Z,7.50
2022-11-25T06:13:28.772Z,7.30
2022-11-25T06:17:10.452Z,7.30
2022-11-25T06:20:59.455Z,7.20
2022-11-25T06:24:41.239Z,7.10
2022-11-25T06:28:22.905Z,7.00
2022-11-25T06:32:04.807Z,6.90
2022-11-25T06:35:46.491Z,6.90
2022-11-25T06:39:28.179Z,6.90
2022-11-25T06:43:09.856Z,6.90
2022-11-25T06:46:51.590Z,6.80
2022-11-25T06:50:38.828Z,6.80
2022-11-25T06:54:21.022Z,6.80
2022-11-25T06:58:28.377Z,6.70
2022-11-25T07:02:04.994Z,6.70
2022-11-25T07:05:46.743Z,6.60
2022-11-25T07:09:28.424Z,6.60
2022-11-25T07:13:10.100Z,6.60
2022-11-25T07:16:51.920Z,6.60
2022-11-25T07:20:33.583Z,6.50
2022-11-25T07:24:16.815Z,6.50
2022-11-25T07:27:58.630Z,6.50
2022-11-25T07:31:43.180Z,6.50
2022-11-25T07:35:24.956Z,6.50
2022-11-25T07:39:10.741Z,6.50
2022-11-25T07:42:52.416Z,6.60
2022-11-25T07:46:39.657Z,6.60
2022-11-25T07:50:21.542Z,6.70
2022-11-25T07:54:05.525Z,6.80
2022-11-25T07:57:47.217Z,6.90
2022-11-25T08:01:29.084Z,7.00
2022-11-25T08:05:11.878Z,7.10
2022-11-25T08:08:56.049Z,7.10
2022-11-25T08:12:37.807Z,7.00
2022-11-25T08:16:22.639Z,7.00
2022-11-25T08:20:04.975Z,7.00
2022-11-25T08:23:52.388Z,7.00
2022-11-25T08:27:34.084Z,7.20
2022-11-25T08:31:21.788Z,7.30
2022-11-25T08:35:03.895Z,7.40
2022-11-25T08:38:48.269Z,7.60
2022-11-25T08:42:29.938Z,7.70
2022-11-25T08:46:15.360Z,8.00
2022-11-25T08:49:57.383Z,8.00
2022-11-25T08:53:40.179Z,8.10
2022-11-25T08:57:21.875Z,8.10
2022-11-25T09:01:05.388Z,8.30
2022-11-25T09:04:47.150Z,8.30
2022-11-25T09:08:30.222Z,8.40
2022-11-25T09:12:12.004Z,8.40
2022-11-25T09:15:53.783Z,8.60
2022-11-25T09:19:35.898Z,9.00
2022-11-25T09:23:18.126Z,9.50
2022-11-25T09:26:59.872Z,10.00
2022-11-25T09:30:41.651Z,10.20
2022-11-25T09:34:23.516Z,10.20
2022-11-25T09:38:05.311Z,10.50
2022-11-25T09:42:17.638Z,10.80
2022-11-25T09:46:39.981Z,11.30
2022-11-25T09:50:40.834Z,11.70
2022-11-25T09:54:26.694Z,12.20
2022-11-25T09:58:37.316Z,12.50
2022-11-25T10:02:24.534Z,12.90
2022-11-25T10:06:14.783Z,13.30
2022-11-25T10:09:58.257Z,13.70
2022-11-25T10:14:11.680Z,14.00
2022-11-25T10:17:58.404Z,14.20
2022-11-25T10:21:40.252Z,14.40
2022-11-25T10:25:25.903Z,14.40
2022-11-25T10:29:13.706Z,14.50
2022-11-25T10:33:18.307Z,14.50
2022-11-25T10:37:02.258Z,14.70
2022-11-25T10:40:48.824Z,14.70
2022-11-25T10:44:36.790Z,14.90
2022-11-25T10:48:46.429Z,15.20
2022-11-25T10:52:30.683Z,15.60
2022-11-25T10:56:18.875Z,15.90
2022-11-25T11:00:01.340Z,16.20
2022-11-25T11:03:52.859Z,16.40
2022-11-25T11:07:40.378Z,16.70
2022-11-25T11:11:23.638Z,16.90
2022-11-25T11:15:20.988Z,17.10
2022-11-25T11:19:03.012Z,17.20
2022-11-25T11:23:09.613Z,17.40
2022-11-25T11:27:13.050Z,17.60
2022-11-25T11:31:19.686Z,17.80
2022-11-25T11:35:23.050Z,17.90
2022-11-25T11:39:11.683Z,17.90
2022-11-25T11:43:02.411Z,18.20
2022-11-25T11:46:57.155Z,18.30
2022-11-25T11:50:45.605Z,18.50
2022-11-25T11:54:39.816Z,18.80
2022-11-25T11:58:21.508Z,18.80
2022-11-25T12:02:09.289Z,19.10
2022-11-25T12:05:54.789Z,19.60
2022-11-25T12:09:45.216Z,19.90
2022-11-25T12:13:45.530Z,20.00
2022-11-25T12:17:35.829Z,20.10
2022-11-25T12:21:35.285Z,20.10
2022-11-25T12:25:25.677Z,20.00
2022-11-25T12:29:13.543Z,20.00
2022-11-25T12:33:07.885Z,19.90
2022-11-25T12:37:02.590Z,19.80
2022-11-25T12:41:08.615Z,19.80
2022-11-25T12:44:59.488Z,19.70
2022-11-25T12:48:42.779Z,19.60
2022-11-25T12:52:24.452Z,19.60
2022-11-25T12:56:19.284Z,19.30
2022-11-25T13:00:41.190Z,19.30
2022-11-25T13:04:50.549Z,19.20
2022-11-25T13:08:58.680Z,19.60
2022-11-25T13:13:01.913Z,19.90
2022-11-25T13:16:49.033Z,20.10
2022-11-25T13:20:31.096Z,20.40
2022-11-25T13:24:28.636Z,20.60
2022-11-25T13:28:28.853Z,20.90
2022-11-25T13:32:32.481Z,21.00
2022-11-25T13:36:22.889Z,21.00
2022-11-25T13:40:22.882Z,21.20
2022-11-25T13:44:16.501Z,21.40
2022-11-25T13:48:12.425Z,21.70
2022-11-25T13:52:01.356Z,21.80
2022-11-25T13:55:43.194Z,21.90
2022-11-25T13:59:37.085Z,22.00
2022-11-25T14:03:19.084Z,22.00
2022-11-25T14:07:20.274Z,21.80
2022-11-25T14:11:28.516Z,21.70
2022-11-25T14:15:33.121Z,21.70
2022-11-25T14:19:50.850Z,21.70
2022-11-25T14:23:54.980Z,21.50
2022-11-25T14:27:37.027Z,21.30
2022-11-25T14:31:25.047Z,21.20
2022-11-25T14:35:29.874Z,21.00
2022-11-25T14:39:35.422Z,20.90
2022-11-25T14:43:21.892Z,20.50
2022-11-25T14:47:05.829Z,19.90
2022-11-25T14:50:58.590Z,19.50
2022-11-25T14:54:44.606Z,19.10
2022-11-25T14:58:27.447Z,18.50
2022-11-25T15:02:25.240Z,17.80
2022-11-25T15:06:07.303Z,16.90
2022-11-25T15:09:49.460Z,16.30
2022-11-25T15:14:05.258Z,15.70
2022-11-25T15:17:47.387Z,15.10
2022-11-25T15:21:48.327Z,14.70
2022-11-25T15:25:52.546Z,14.20
2022-11-25T15:29:41.454Z,13.80
2022-11-25T15:33:25.530Z,13.50
2022-11-25T15:37:12.503Z,13.20
2022-11-25T15:40:57.762Z,12.80
2022-11-25T15:44:50.886Z,12.60
2022-11-25T15:48:41.045Z,12.40
2022-11-25T15:52:24.488Z,12.10
2022-11-25T15:56:10.307Z,12.00
2022-11-25T15:59:55.003Z,11.80
2022-11-25T16:03:36.876Z,11.60
2022-11-25T16:07:23.649Z,11.50
2022-11-25T16:11:19.595Z,11.40
2022-11-25T16:15:01.368Z,11.30
2022-11-25T16:18:50.476Z,11.30
2022-11-25T16:22:32.315Z,11.30
2022-11-25T16:26:21.561Z,11.40
2022-11-25T16:30:06.279Z,11.30
2022-11-25T16:33:48.091Z,11.30
2022-11-25T16:37:29.817Z,11.30
2022-11-25T16:41:20.874Z,11.30
2022-11-25T16:45:02.775Z,11.20
2022-11-25T16:48:45.079Z,11.10
2022-11-25T16:52:26.833Z,11.00
2022-11-25T16:56:17.366Z,11.00
2022-11-25T17:00:02.115Z,10.90
2022-11-25T17:03:44.469Z,10.90
2022-11-25T17:07:34.136Z,10.90
2022-11-25T17:11:22.764Z,10.80
2022-11-25T17:15:11.432Z,10.80
2022-11-25T17:18:55.472Z,10.60
2022-11-25T17:22:39.518Z,10.50
2022-11-25T17:26:26.973Z,10.50
2022-11-25T17:30:20.429Z,10.40
2022-11-25T17:34:02.397Z,10.30
2022-11-25T17:37:44.189Z,10.30
2022-11-25T17:41:28.794Z,10.20
2022-11-25T17:45:16.278Z,10.00
2022-11-25T17:48:58.065Z,10.00
2022-11-25T17:52:39.762Z,9.90
2022-11-25T17:56:25.781Z,9.80
2022-11-25T18:00:13.542Z,9.70
2022-11-25T18:03:55.994Z,9.60
2022-11-25T18:07:37.775Z,9.50
2022-11-25T18:11:21.491Z,9.50
2022-11-25T18:15:08.231Z,9.40
2022-11-25T18:18:50.195Z,9.40
2022-11-25T18:22:31.909Z,9.30
2022-11-25T18:26:13.873Z,9.30
2022-11-25T18:29:56.458Z,9.30
2022-11-25T18:33:38.495Z,9.20
2022-11-25T18:37:20.212Z,9.20
2022-11-25T18:41:02.065Z,9.20
2022-11-25T18:44:44.591Z,9.10
2022-11-25T18:48:27.026Z,9.10
2022-11-25T18:52:09.459Z,9.20
2022-11-25T18:55:51.267Z,9.20
2022-11-25T18:59:35.106Z,9.20
2022-11-25T19:03:23.274Z,9.20
2022-11-25T19:07:04.967Z,9.10
2022-11-25T19:10:48.475Z,9.00
2022-11-25T19:14:37.526Z,9.00
2022-11-25T19:18:25.537Z,8.90
2022-11-25T19:22:11.852Z,8.90
2022-11-25T19:25:55.707Z,8.90
2022-11-25T19:29:42.249Z,8.80
2022-11-25T19:33:29.965Z,8.90
2022-11-25T19:37:17.739Z,8.90
2022-11-25T19:40:59.671Z,8.80
2022-11-25T19:44:42.624Z,8.80
2022-11-25T19:48:27.038Z,8.90
2022-11-25T19:52:22.018Z,8.90
2022-11-25T19:56:04.961Z,8.90
2022-11-25T19:59:47.172Z,9.00
2022-11-25T20:03:30.823Z,9.00
2022-11-25T20:07:15.751Z,9.00
2022-11-25T20:10:58.011Z,9.10
2022-11-25T20:14:39.929Z,9.10
2022-11-25T20:18:25.775Z,9.20
2022-11-25T20:22:09.253Z,9.20
2022-11-25T20:25:51.166Z,9.20
2022-11-25T20:29:32.892Z,9.20
2022-11-25T20:33:18.682Z,9.20
2022-11-25T20:37:03.577Z,9.30
2022-11-25T20:40:46.281Z,9.30
2022-11-25T20:44:28.576Z,9.30
2022-11-25T20:48:13.498Z,9.30
2022-11-25T20:51:57.348Z,9.30
2022-11-25T20:55:40.135Z,9.30
2022-11-25T20:59:26.381Z,9.30
2022-11-25T21:03:08.196Z,9.30
2022-11-25T21:06:49.942Z,9.30
2022-11-25T21:10:34.928Z,9.30
2022-11-25T21:14:19.498Z,9.30
2022-11-25T21:18:01.252Z,9.30
2022-11-25T21:21:46.100Z,9.30
2022-11-25T21:25:27.911Z,9.40
2022-11-25T21:29:15.674Z,9.30
2022-11-25T21:32:59.751Z,9.30
2022-11-25T21:36:44.610Z,9.30
2022-11-25T21:40:34.931Z,9.30
2022-11-25T21:44:32.959Z,9.30
2022-11-25T21:48:26.360Z,9.30
2022-11-25T21:52:08.099Z,9.30
2022-11-25T21:55:50.529Z,9.30
2022-11-25T21:59:32.388Z,9.30
2022-11-25T22:03:17.230Z,9.30
2022-11-25T22:06:58.927Z,9.30
2022-11-25T22:10:44.355Z,9.20
2022-11-25T22:14:34.163Z,9.30
2022-11-25T22:18:25.660Z,9.30
2022-11-25T22:22:13.267Z,9.30
2022-11-25T22:25:55.367Z,9.30
2022-11-25T22:29:37.157Z,9.40
2022-11-25T22:33:20.191Z,9.30
2022-11-25T22:37:02.111Z,9.30
2022-11-25T22:40:52.723Z,9.20
2022-11-25T22:44:46.737Z,9.20
2022-11-25T22:48:35.005Z,9.20
2022-11-25T22:52:25.208Z,9.20
2022-11-25T22:56:18.164Z,9.20
2022-11-25T22:59:59.860Z,9.20
2022-11-25T23:03:43.031Z,9.30
2022-11-25T23:07:25.624Z,9.30
2022-11-25T23:11:14.143Z,9.30
2022-11-25T23:14:55.864Z,9.30
2022-11-25T23:18:46.814Z,9.30
2022-11-25T23:22:28.519Z,9.30
2022-11-25T23:26:10.923Z,9.40
2022-11-25T23:29:52.778Z,9.40
2022-11-25T23:33:45.984Z,9.40
2022-11-25T23:37:27.847Z,9.40
2022-11-25T23:41:20.045Z,9.40
2022-11-25T23:45:01.785Z,9.40
2022-11-25T23:48:47.877Z,9.50
2022-11-25T23:52:29.723Z,9.50
2022-11-25T23:56:11.430Z,9.50
2022-11-25T23:59:53.799Z,9.40
